Time;durP1;ratioP1;P1;durP2;ratioP2;P2;SDS_P1;SDS_P2;PMS_P1;PMS_P2;Temp;Humidity;BMP_temperature;BMP_pressure;BME280_temperature;BME280_humidity;BME280_pressure;Samples;Min_cycle;Max_cycle;Signal;HPM_P1;HPM_P2
2021/10/12 00:01:48;;;;;;;4.95;3.88;;;;;;;;;;5032565;28;20052;-42
2021/10/12 00:04:14;;;;;;;5.25;3.70;;;;;;;;;;5033338;28;20017;-42
2021/10/12 00:06:40;;;;;;;5.55;3.65;;;;;;;;;;5032626;28;20010;-42
2021/10/12 00:09:06;;;;;;;6.40;3.38;;;;;;;;;;5033082;28;20014;-42
2021/10/12 00:11:32;;;;;;;4.45;3.22;;;;;;;;;;5032935;28;20064;-42
2021/10/12 00:13:58;;;;;;;4.65;3.45;;;;;;;;;;5033098;28;20021;-42
2021/10/12 00:16:24;;;;;;;5.75;3.75;;;;;;;;;;5033599;28;20037;-42
2021/10/12 00:18:50;;;;;;;8.38;3.42;;;;;;;;;;5030949;28;20021;-42
2021/10/12 00:21:16;;;;;;;6.05;3.40;;;;;;;;;;5031667;28;20473;-42
2021/10/12 00:23:43;;;;;;;5.57;3.47;;;;;;;;;;5032730;28;20032;-42
2021/10/12 00:26:09;;;;;;;5.22;3.70;;;;;;;;;;5033474;28;20021;-42
2021/10/12 00:28:35;;;;;;;5.43;3.25;;;;;;;;;;5032760;28;20017;-43
2021/10/12 00:31:02;;;;;;;4.32;3.22;;;;;;;;;;5032928;28;20026;-42
2021/10/12 00:33:28;;;;;;;6.43;3.70;;;;;;;;;;5033315;28;20013;-42
2021/10/12 00:35:54;;;;;;;6.45;3.85;;;;;;;;;;5032012;28;20240;-42
2021/10/12 00:38:22;;;;;;;4.90;3.53;;;;;;;;;;5032114;28;20087;-41
2021/10/12 00:40:48;;;;;;;5.07;3.78;;;;;;;;;;5028170;28;20009;-42
2021/10/12 00:43:14;;;;;;;3.90;3.17;;;;;;;;;;5031482;28;20021;-42
2021/10/12 00:45:41;;;;;;;5.38;3.67;;;;;;;;;;5030240;28;20045;-42
2021/10/12 00:48:08;;;;;;;5.97;3.53;;;;;;;;;;5029248;28;20025;-42
2021/10/12 00:50:36;;;;;;;5.28;4.07;;;;;;;;;;5031125;28;20401;-42
2021/10/12 00:53:02;;;;;;;6.28;4.00;;;;;;;;;;5031750;28;20041;-42
2021/10/12 00:55:28;;;;;;;6.50;3.45;;;;;;;;;;5031652;28;20100;-42
2021/10/12 00:57:54;;;;;;;4.53;3.45;;;;;;;;;;5030939;28;20025;-42
2021/10/12 01:00:21;;;;;;;4.88;3.65;;;;;;;;;;5031322;28;20371;-42
2021/10/12 01:02:47;;;;;;;4.85;3.80;;;;;;;;;;5027404;28;20053;-42
2021/10/12 01:05:13;;;;;;;5.80;3.50;;;;;;;;;;5031670;28;20075;-42
2021/10/12 01:07:39;;;;;;;5.68;3.67;;;;;;;;;;5030592;28;20075;-42
2021/10/12 01:10:06;;;;;;;5.20;3.92;;;;;;;;;;5031482;28;20025;-42
2021/10/12 01:12:32;;;;;;;3.65;3.00;;;;;;;;;;5031396;28;20021;-42
2021/10/12 01:14:58;;;;;;;6.60;3.17;;;;;;;;;;5030802;28;20018;-42
2021/10/12 01:17:24;;;;;;;4.93;3.72;;;;;;;;;;5030858;28;20060;-42
2021/10/12 01:19:50;;;;;;;6.32;3.78;;;;;;;;;;5030467;28;20018;-42
2021/10/12 01:22:16;;;;;;;4.80;3.40;;;;;;;;;;5031062;28;20018;-42
2021/10/12 01:24:42;;;;;;;6.30;3.50;;;;;;;;;;5030413;28;20026;-42
2021/10/12 01:27:08;;;;;;;4.32;3.45;;;;;;;;;;5031244;28;20576;-42
2021/10/12 01:29:34;;;;;;;4.88;3.38;;;;;;;;;;5030712;28;20018;-43
2021/10/12 01:32:00;;;;;;;4.35;3.50;;;;;;;;;;5032126;28;20026;-42
2021/10/12 01:34:26;;;;;;;4.45;3.67;;;;;;;;;;5030859;28;20024;-42
2021/10/12 01:36:52;;;;;;;6.45;4.47;;;;;;;;;;5030243;28;20691;-42
2021/10/12 01:39:19;;;;;;;4.45;3.63;;;;;;;;;;5031288;28;20032;-42
2021/10/12 01:41:46;;;;;;;6.45;4.05;;;;;;;;;;5029977;28;20494;-42
2021/10/12 01:44:12;;;;;;;4.30;3.15;;;;;;;;;;5030347;28;20347;-42
2021/10/12 01:46:38;;;;;;;3.72;2.72;;;;;;;;;;5030189;28;20017;-42
2021/10/12 01:49:04;;;;;;;4.95;3.50;;;;;;;;;;5030775;28;20021;-42
2021/10/12 01:51:30;;;;;;;6.13;3.40;;;;;;;;;;5030837;28;20344;-42
2021/10/12 01:53:56;;;;;;;5.13;3.40;;;;;;;;;;5030345;28;20017;-42
2021/10/12 01:56:22;;;;;;;5.95;3.35;;;;;;;;;;5030528;28;20040;-42
2021/10/12 01:58:51;;;;;;;4.55;3.28;;;;;;;;;;5030036;28;20049;-42
2021/10/12 02:01:21;;;;;;;5.38;3.72;;;;;;;;;;5030925;28;20020;-42
2021/10/12 02:03:47;;;;;;;5.82;3.78;;;;;;;;;;5030095;28;20021;-42
2021/10/12 02:06:13;;;;;;;3.40;2.70;;;;;;;;;;5030884;28;20096;-42
2021/10/12 02:08:39;;;;;;;5.60;3.67;;;;;;;;;;5029685;28;20537;-42
2021/10/12 02:11:05;;;;;;;4.88;3.28;;;;;;;;;;5030688;28;20021;-42
2021/10/12 02:13:31;;;;;;;4.78;3.40;;;;;;;;;;5030514;28;20512;-42
2021/10/12 02:15:57;;;;;;;4.38;3.17;;;;;;;;;;5033273;28;20025;-42
2021/10/12 02:18:23;;;;;;;4.78;3.40;;;;;;;;;;5034430;28;20037;-42
2021/10/12 02:20:49;;;;;;;4.18;3.17;;;;;;;;;;5033881;28;20017;-43
2021/10/12 02:23:15;;;;;;;5.57;3.40;;;;;;;;;;5032696;28;20490;-42
2021/10/12 02:25:41;;;;;;;4.35;2.97;;;;;;;;;;5035169;28;20060;-42
2021/10/12 02:28:07;;;;;;;5.40;3.45;;;;;;;;;;5036164;28;20029;-42
2021/10/12 02:30:33;;;;;;;4.13;3.50;;;;;;;;;;5035362;28;20055;-42
2021/10/12 02:32:59;;;;;;;4.03;3.08;;;;;;;;;;5035036;28;20021;-43
2021/10/12 02:35:25;;;;;;;6.07;2.92;;;;;;;;;;5035736;28;20023;-42
2021/10/12 02:37:51;;;;;;;5.85;3.65;;;;;;;;;;5034711;28;20033;-42
2021/10/12 02:40:17;;;;;;;5.63;3.40;;;;;;;;;;5035746;28;20017;-42
2021/10/12 02:42:43;;;;;;;4.43;3.50;;;;;;;;;;5034852;28;20458;-42
2021/10/12 02:45:09;;;;;;;4.90;3.50;;;;;;;;;;5035196;28;20091;-42
2021/10/12 02:47:35;;;;;;;4.80;3.63;;;;;;;;;;5034907;28;20033;-43
2021/10/12 02:50:05;;;;;;;4.22;3.00;;;;;;;;;;5035081;28;20028;-42
2021/10/12 02:52:31;;;;;;;6.95;3.40;;;;;;;;;;5035377;28;20018;-42
2021/10/12 02:54:58;;;;;;;4.32;3.40;;;;;;;;;;5034577;28;20083;-42
2021/10/12 02:57:24;;;;;;;6.65;4.28;;;;;;;;;;5034934;28;20421;-42
2021/10/12 02:59:50;;;;;;;5.20;3.42;;;;;;;;;;5034481;28;20017;-42
2021/10/12 03:02:16;;;;;;;3.75;2.95;;;;;;;;;;5034779;28;20542;-42
2021/10/12 03:04:42;;;;;;;4.30;3.50;;;;;;;;;;5034440;28;20104;-42
2021/10/12 03:07:08;;;;;;;5.20;3.63;;;;;;;;;;5035182;28;20032;-42
2021/10/12 03:09:34;;;;;;;5.15;3.42;;;;;;;;;;5035224;28;20163;-42
2021/10/12 03:12:00;;;;;;;4.88;3.63;;;;;;;;;;5034997;28;20018;-42
2021/10/12 03:14:26;;;;;;;5.78;3.80;;;;;;;;;;5034949;28;20047;-42
2021/10/12 03:16:52;;;;;;;7.13;3.60;;;;;;;;;;5033706;28;20104;-42
2021/10/12 03:19:18;;;;;;;5.25;4.10;;;;;;;;;;5034759;28;20036;-46
2021/10/12 03:21:52;;;;;;;4.70;3.35;;;;;;;;;;5033823;28;20022;-42
2021/10/12 03:24:19;;;;;;;4.75;3.28;;;;;;;;;;5034912;28;20116;-43
2021/10/12 03:26:45;;;;;;;4.78;3.00;;;;;;;;;;5033183;28;20448;-43
2021/10/12 03:29:11;;;;;;;5.10;3.35;;;;;;;;;;5034760;28;20018;-42
2021/10/12 03:31:37;;;;;;;5.53;3.30;;;;;;;;;;5034463;28;20485;-43
2021/10/12 03:34:03;;;;;;;4.75;3.55;;;;;;;;;;5033950;28;20025;-44
2021/10/12 03:36:29;;;;;;;6.60;3.72;;;;;;;;;;5034561;28;20029;-42
2021/10/12 03:38:55;;;;;;;5.15;3.47;;;;;;;;;;5033491;28;20772;-42
2021/10/12 03:41:21;;;;;;;4.43;3.30;;;;;;;;;;5034708;28;20390;-42
2021/10/12 03:43:47;;;;;;;4.43;3.00;;;;;;;;;;5033566;28;20032;-42
2021/10/12 03:46:13;;;;;;;5.85;3.80;;;;;;;;;;5033928;28;20087;-44
2021/10/12 03:48:39;;;;;;;3.35;2.70;;;;;;;;;;5033599;28;20036;-43
2021/10/12 03:51:07;;;;;;;4.63;3.17;;;;;;;;;;5033106;28;20017;-42
2021/10/12 03:53:33;;;;;;;3.67;2.80;;;;;;;;;;5032994;28;20017;-42
2021/10/12 03:55:59;;;;;;;3.95;2.90;;;;;;;;;;5033279;28;20026;-43
2021/10/12 03:58:25;;;;;;;3.38;2.75;;;;;;;;;;5034210;28;20073;-42
2021/10/12 04:00:51;;;;;;;4.80;3.20;;;;;;;;;;5033425;28;20049;-42
2021/10/12 04:03:17;;;;;;;4.97;3.17;;;;;;;;;;5033646;28;20022;-42
2021/10/12 04:05:43;;;;;;;3.90;3.03;;;;;;;;;;5033351;28;20409;-42
2021/10/12 04:08:10;;;;;;;7.68;3.75;;;;;;;;;;5032626;28;20025;-42
2021/10/12 04:10:36;;;;;;;3.28;2.50;;;;;;;;;;5033832;28;20132;-42
2021/10/12 04:13:03;;;;;;;4.57;3.03;;;;;;;;;;5033118;28;20096;-42
2021/10/12 04:15:29;;;;;;;6.15;2.80;;;;;;;;;;5033922;28;20478;-42
2021/10/12 04:17:55;;;;;;;4.25;2.90;;;;;;;;;;5032702;28;20037;-42
2021/10/12 04:20:24;;;;;;;4.57;3.50;;;;;;;;;;5033778;28;20401;-42
2021/10/12 04:22:50;;;;;;;3.92;2.95;;;;;;;;;;5033056;28;20521;-41
2021/10/12 04:25:17;;;;;;;7.07;3.20;;;;;;;;;;5033559;28;20026;-42
2021/10/12 04:27:43;;;;;;;4.75;3.03;;;;;;;;;;5033016;28;20068;-43
2021/10/12 04:30:10;;;;;;;6.72;2.97;;;;;;;;;;5033454;28;20022;-42
2021/10/12 04:32:36;;;;;;;5.63;3.20;;;;;;;;;;5033548;28;20506;-42
2021/10/12 04:35:02;;;;;;;3.47;3.10;;;;;;;;;;5032801;28;20026;-42
2021/10/12 04:37:28;;;;;;;4.82;3.00;;;;;;;;;;5033346;28;20473;-42
2021/10/12 04:39:54;;;;;;;4.50;3.20;;;;;;;;;;5032528;28;20071;-42
2021/10/12 04:42:20;;;;;;;4.05;3.15;;;;;;;;;;5033049;28;20057;-42
2021/10/12 04:44:50;;;;;;;5.07;3.17;;;;;;;;;;5032114;28;20378;-42
2021/10/12 04:47:19;;;;;;;3.80;3.05;;;;;;;;;;5033431;28;20476;-42
2021/10/12 04:49:45;;;;;;;4.90;2.88;;;;;;;;;;5032211;28;20111;-42
2021/10/12 04:52:11;;;;;;;5.20;3.67;;;;;;;;;;5032935;28;20478;-42
2021/10/12 04:54:37;;;;;;;3.88;2.80;;;;;;;;;;5032885;28;20056;-42
2021/10/12 04:57:03;;;;;;;4.93;2.85;;;;;;;;;;5032607;28;20060;-42
2021/10/12 04:59:29;;;;;;;3.88;3.00;;;;;;;;;;5032806;28;20457;-42
2021/10/12 05:01:55;;;;;;;4.70;2.67;;;;;;;;;;5032210;28;20021;-42
2021/10/12 05:04:21;;;;;;;4.40;3.55;;;;;;;;;;5032624;28;20024;-42
2021/10/12 05:06:47;;;;;;;4.50;3.00;;;;;;;;;;5032132;28;20433;-42
2021/10/12 05:09:13;;;;;;;3.42;2.88;;;;;;;;;;5032797;28;20032;-42
2021/10/12 05:11:39;;;;;;;5.97;3.47;;;;;;;;;;5032721;28;20481;-43
2021/10/12 05:14:05;;;;;;;4.70;3.15;;;;;;;;;;5032435;28;20034;-42
2021/10/12 05:16:32;;;;;;;4.00;2.80;;;;;;;;;;5032851;28;20031;-42
2021/10/12 05:19:00;;;;;;;4.55;2.70;;;;;;;;;;5031919;28;20112;-42
2021/10/12 05:21:26;;;;;;;5.78;3.03;;;;;;;;;;5032323;28;20009;-44
2021/10/12 05:23:53;;;;;;;4.07;3.00;;;;;;;;;;5031884;28;20417;-42
2021/10/12 05:26:19;;;;;;;3.85;2.75;;;;;;;;;;5032373;28;20032;-42
2021/10/12 05:28:45;;;;;;;4.03;2.70;;;;;;;;;;5031935;28;20025;-43
2021/10/12 05:31:11;;;;;;;4.30;2.88;;;;;;;;;;5032655;28;20024;-44
2021/10/12 05:33:37;;;;;;;3.72;2.55;;;;;;;;;;5032469;28;20040;-43
2021/10/12 05:36:03;;;;;;;5.00;2.47;;;;;;;;;;5031194;28;20048;-43
2021/10/12 05:38:29;;;;;;;6.45;2.50;;;;;;;;;;5032196;28;20034;-43
2021/10/12 05:40:55;;;;;;;3.55;2.58;;;;;;;;;;5030218;28;20108;-42
2021/10/12 05:43:21;;;;;;;5.97;3.00;;;;;;;;;;5032492;28;20022;-44
2021/10/12 05:45:49;;;;;;;5.47;3.22;;;;;;;;;;5030875;28;20108;-43
2021/10/12 05:48:16;;;;;;;7.25;3.03;;;;;;;;;;5031996;28;20106;-42
2021/10/12 05:50:43;;;;;;;3.70;2.63;;;;;;;;;;5031132;28;20017;-42
2021/10/12 05:58:14;;;;;;;11.38;3.75;;;;;;;;;;5031918;28;20033;-42
2021/10/12 06:00:41;;;;;;;11.05;3.85;;;;;;;;;;5031635;28;20358;-44
2021/10/12 06:03:07;;;;;;;12.43;3.90;;;;;;;;;;5022354;28;20021;-43
2021/10/12 06:05:35;;;;;;;11.68;3.17;;;;;;;;;;5030089;28;20024;-45
2021/10/12 06:08:01;;;;;;;10.80;3.40;;;;;;;;;;5032737;28;20784;-45
2021/10/12 06:10:29;;;;;;;8.23;3.47;;;;;;;;;;5030944;28;20441;-44
2021/10/12 06:12:55;;;;;;;8.38;2.78;;;;;;;;;;5030728;28;20549;-43
2021/10/12 06:15:21;;;;;;;9.10;3.17;;;;;;;;;;5031709;28;20100;-47
2021/10/12 06:17:47;;;;;;;13.15;3.72;;;;;;;;;;5030905;28;20056;-43
2021/10/12 06:20:13;;;;;;;9.93;4.05;;;;;;;;;;5030980;28;20017;-43
2021/10/12 06:22:39;;;;;;;9.23;3.03;;;;;;;;;;5031146;28;20409;-48
2021/10/12 06:25:06;;;;;;;6.95;3.15;;;;;;;;;;5030958;28;20096;-46
2021/10/12 06:27:32;;;;;;;8.30;3.15;;;;;;;;;;5031453;28;20093;-43
2021/10/12 06:29:57;;;;;;;7.95;3.22;;;;;;;;;;5030870;28;20022;-43
2021/10/12 06:32:23;;;;;;;4.82;2.75;;;;;;;;;;5030452;28;20029;-43
2021/10/12 06:34:49;;;;;;;11.07;3.58;;;;;;;;;;5030859;28;20025;-43
2021/10/12 06:37:15;;;;;;;6.50;2.78;;;;;;;;;;5031023;28;20084;-48
2021/10/12 06:39:41;;;;;;;9.27;2.97;;;;;;;;;;5031388;28;20028;-43
2021/10/12 06:42:08;;;;;;;8.43;3.75;;;;;;;;;;5030427;28;20092;-44
2021/10/12 06:44:34;;;;;;;8.00;2.53;;;;;;;;;;5030246;28;20100;-46
2021/10/12 06:47:00;;;;;;;4.93;2.60;;;;;;;;;;5030735;28;20034;-45
2021/10/12 06:49:26;;;;;;;5.50;2.85;;;;;;;;;;5031431;28;20024;-43
2021/10/12 06:51:52;;;;;;;5.53;2.90;;;;;;;;;;5030367;28;20013;-43
2021/10/12 06:54:18;;;;;;;6.90;3.40;;;;;;;;;;5030151;28;20026;-43
2021/10/12 06:56:43;;;;;;;7.07;3.35;;;;;;;;;;5030393;28;20474;-44
2021/10/12 06:59:10;;;;;;;8.55;3.30;;;;;;;;;;5030013;28;20033;-43
2021/10/12 07:01:36;;;;;;;6.25;2.90;;;;;;;;;;5033867;28;20112;-44
2021/10/12 07:04:02;;;;;;;7.80;3.42;;;;;;;;;;5032398;28;20433;-44
2021/10/12 07:06:28;;;;;;;8.57;3.35;;;;;;;;;;5034802;28;20017;-43
2021/10/12 07:08:54;;;;;;;5.00;2.83;;;;;;;;;;5034050;28;20840;-43
2021/10/12 07:11:20;;;;;;;6.28;2.83;;;;;;;;;;5034815;28;20022;-44
2021/10/12 07:13:47;;;;;;;6.90;3.63;;;;;;;;;;5034538;28;20024;-45
2021/10/12 07:16:14;;;;;;;8.48;2.38;;;;;;;;;;5034800;28;20017;-44
2021/10/12 07:18:40;;;;;;;4.80;2.78;;;;;;;;;;5033886;28;20497;-43
2021/10/12 07:21:06;;;;;;;7.60;3.03;;;;;;;;;;5034066;28;20037;-44
2021/10/12 07:23:32;;;;;;;5.47;2.85;;;;;;;;;;5034473;28;20075;-43
2021/10/12 07:25:58;;;;;;;5.10;2.63;;;;;;;;;;5033503;28;20034;-44
2021/10/12 07:28:24;;;;;;;7.72;2.90;;;;;;;;;;5034587;28;20021;-43
2021/10/12 07:30:50;;;;;;;6.47;2.80;;;;;;;;;;5033519;28;20076;-44
2021/10/12 07:33:16;;;;;;;7.25;3.13;;;;;;;;;;5032745;28;20024;-44
2021/10/12 07:35:43;;;;;;;4.88;2.25;;;;;;;;;;5033767;28;20371;-44
2021/10/12 07:38:11;;;;;;;4.20;3.03;;;;;;;;;;5033357;28;20029;-44
2021/10/12 07:40:38;;;;;;;6.55;2.92;;;;;;;;;;5034251;28;20029;-44
2021/10/12 07:43:04;;;;;;;3.40;2.15;;;;;;;;;;5033293;28;20026;-44
2021/10/12 07:45:30;;;;;;;5.10;2.70;;;;;;;;;;5033932;28;20045;-44
2021/10/12 07:47:58;;;;;;;4.07;2.70;;;;;;;;;;5033481;28;20029;-43
2021/10/12 07:50:24;;;;;;;5.32;2.50;;;;;;;;;;5033823;28;20033;-43
2021/10/12 07:52:50;;;;;;;4.40;2.67;;;;;;;;;;5033231;28;20013;-44
2021/10/12 07:55:28;;;;;;;5.63;2.92;;;;;;;;;;5033947;28;20025;-46
2021/10/12 07:57:57;;;;;;;4.25;2.42;;;;;;;;;;5033161;28;20548;-44
2021/10/12 08:00:25;;;;;;;4.65;2.33;;;;;;;;;;5033203;28;20028;-45
2021/10/12 08:02:51;;;;;;;5.50;2.72;;;;;;;;;;5032994;28;20096;-46
2021/10/12 08:05:17;;;;;;;4.20;2.50;;;;;;;;;;5033891;28;20092;-45
2021/10/12 08:07:43;;;;;;;4.88;2.75;;;;;;;;;;5034069;28;20018;-43
2021/10/12 08:10:10;;;;;;;3.30;2.25;;;;;;;;;;5032631;28;20115;-44
2021/10/12 08:12:36;;;;;;;5.25;2.28;;;;;;;;;;5033010;28;20029;-44
2021/10/12 08:15:02;;;;;;;3.88;2.03;;;;;;;;;;5032961;28;20028;-44
2021/10/12 08:17:28;;;;;;;6.65;2.88;;;;;;;;;;5032691;28;20366;-44
2021/10/12 08:19:53;;;;;;;4.07;2.38;;;;;;;;;;5033048;28;20013;-43
2021/10/12 08:22:20;;;;;;;4.45;2.25;;;;;;;;;;5033444;28;20096;-45
2021/10/12 08:24:46;;;;;;;4.57;2.45;;;;;;;;;;5033354;28;20370;-44
2021/10/12 08:27:12;;;;;;;4.85;2.63;;;;;;;;;;5032716;28;20041;-44
2021/10/12 08:29:37;;;;;;;4.72;2.53;;;;;;;;;;5033506;28;20018;-45
2021/10/12 08:32:04;;;;;;;6.03;2.42;;;;;;;;;;5032665;28;20327;-46
2021/10/12 08:34:30;;;;;;;4.28;2.17;;;;;;;;;;5033336;28;20025;-43
2021/10/12 08:36:56;;;;;;;4.72;2.75;;;;;;;;;;5032460;28;20175;-43
2021/10/12 08:39:29;;;;;;;3.80;2.10;;;;;;;;;;5033319;28;20025;-47
2021/10/12 08:41:56;;;;;;;3.65;2.15;;;;;;;;;;5032524;28;20024;-44
2021/10/12 08:44:22;;;;;;;2.35;2.00;;;;;;;;;;5033115;28;20029;-43
2021/10/12 08:46:48;;;;;;;3.80;2.25;;;;;;;;;;5033137;28;20029;-45
2021/10/12 08:49:15;;;;;;;4.53;2.42;;;;;;;;;;5032340;28;20025;-44
2021/10/12 08:51:44;;;;;;;3.33;2.13;;;;;;;;;;5032998;28;20021;-44
2021/10/12 08:54:11;;;;;;;3.25;2.42;;;;;;;;;;5032120;28;20083;-44
2021/10/12 08:56:38;;;;;;;6.72;2.88;;;;;;;;;;5032680;28;20418;-43
2021/10/12 08:59:04;;;;;;;4.47;2.40;;;;;;;;;;5031794;28;20022;-43
2021/10/12 09:01:31;;;;;;;3.35;2.00;;;;;;;;;;5032232;28;20030;-44
2021/10/12 09:06:30;;;;;;;3.20;2.10;;;;;;;;;;5025201;28;20029;-44
2021/10/12 09:09:01;;;;;;;5.53;3.05;;;;;;;;;;5032736;28;20018;-43
2021/10/12 09:11:28;;;;;;;3.85;2.15;;;;;;;;;;5033065;28;20017;-43
2021/10/12 09:14:04;;;;;;;4.78;2.28;;;;;;;;;;5031778;28;20052;-44
2021/10/12 09:16:35;;;;;;;3.10;1.70;;;;;;;;;;5032492;28;20113;-43
2021/10/12 09:19:02;;;;;;;4.05;1.98;;;;;;;;;;5031963;28;20021;-44
2021/10/12 09:21:29;;;;;;;4.45;2.58;;;;;;;;;;5012741;28;20041;-43
2021/10/12 09:24:03;;;;;;;2.10;1.80;;;;;;;;;;5011186;28;20025;-44
2021/10/12 09:26:33;;;;;;;2.55;2.13;;;;;;;;;;5012312;28;20434;-44
2021/10/12 09:29:00;;;;;;;3.17;1.65;;;;;;;;;;5012008;28;20076;-41
2021/10/12 09:31:30;;;;;;;3.63;2.28;;;;;;;;;;5012404;28;20454;-43
2021/10/12 09:33:56;;;;;;;3.38;1.85;;;;;;;;;;5024626;28;20029;-41
2021/10/12 09:36:35;;;;;;;3.65;2.30;;;;;;;;;;5032015;28;20079;-41
2021/10/12 09:39:02;;;;;;;1.90;1.50;;;;;;;;;;5031529;28;20060;-44
2021/10/12 09:41:29;;;;;;;3.25;1.85;;;;;;;;;;5032087;28;20017;-44
2021/10/12 09:44:18;;;;;;;3.30;2.10;;;;;;;;;;5030331;28;20087;-45
2021/10/12 09:46:49;;;;;;;4.03;2.30;;;;;;;;;;5033784;28;20049;-44
2021/10/12 09:49:16;;;;;;;3.50;1.80;;;;;;;;;;5031577;28;20014;-44
2021/10/12 09:52:00;;;;;;;2.78;1.90;;;;;;;;;;5032217;28;20028;-44
2021/10/12 09:54:29;;;;;;;3.70;1.90;;;;;;;;;;5032058;28;20024;-44
2021/10/12 09:56:59;;;;;;;4.07;2.10;;;;;;;;;;5030861;28;20025;-44
2021/10/12 09:59:25;;;;;;;2.63;1.95;;;;;;;;;;5031707;28;20471;-43
2021/10/12 10:01:52;;;;;;;3.47;2.10;;;;;;;;;;5031458;28;20084;-45
2021/10/12 10:04:19;;;;;;;3.30;2.33;;;;;;;;;;5031850;28;20025;-44
2021/10/12 10:06:46;;;;;;;2.47;1.65;;;;;;;;;;5031875;28;20366;-44
2021/10/12 10:09:13;;;;;;;2.72;1.52;;;;;;;;;;5031114;28;20021;-44
2021/10/12 10:11:39;;;;;;;3.28;1.85;;;;;;;;;;5030258;28;20026;-43
2021/10/12 10:14:09;;;;;;;2.20;1.67;;;;;;;;;;5030617;28;20025;-44
2021/10/12 10:16:36;;;;;;;2.83;1.70;;;;;;;;;;5031764;28;20021;-45
2021/10/12 10:19:02;;;;;;;3.33;2.30;;;;;;;;;;5030875;28;20017;-46
2021/10/12 10:21:28;;;;;;;3.13;1.58;;;;;;;;;;5031679;28;20030;-44
2021/10/12 10:23:57;;;;;;;2.85;1.70;;;;;;;;;;5030989;28;20417;-44
2021/10/12 10:26:24;;;;;;;2.38;1.70;;;;;;;;;;5031585;28;20108;-48
2021/10/12 10:28:52;;;;;;;3.20;1.75;;;;;;;;;;5031541;28;20072;-45
2021/10/12 10:31:18;;;;;;;3.88;2.03;;;;;;;;;;5031468;28;20033;-43
2021/10/12 10:33:44;;;;;;;2.15;1.58;;;;;;;;;;5031727;28;20076;-46
2021/10/12 10:36:10;;;;;;;2.92;1.55;;;;;;;;;;5032626;28;20036;-44
2021/10/12 10:38:42;;;;;;;3.63;1.88;;;;;;;;;;5035516;28;20421;-44
2021/10/12 10:41:10;;;;;;;2.33;1.50;;;;;;;;;;5035128;28;20104;-43
2021/10/12 10:44:11;;;;;;;2.15;1.50;;;;;;;;;;5035187;28;20082;-43
2021/10/12 10:46:38;;;;;;;2.55;1.40;;;;;;;;;;5029652;28;20049;-44
2021/10/12 10:49:26;;;;;;;3.97;2.38;;;;;;;;;;5034720;28;20087;-43
2021/10/12 10:51:58;;;;;;;3.45;1.83;;;;;;;;;;5035257;28;20049;-46
2021/10/12 10:54:43;;;;;;;2.33;1.42;;;;;;;;;;5035156;28;20450;-44
2021/10/12 10:57:20;;;;;;;1.98;1.30;;;;;;;;;;5034278;28;20382;-44
2021/10/12 10:59:46;;;;;;;2.22;1.50;;;;;;;;;;5035194;28;20067;-43
2021/10/12 11:02:28;;;;;;;3.40;1.98;;;;;;;;;;5034334;28;20101;-44
2021/10/12 11:04:54;;;;;;;2.38;1.60;;;;;;;;;;5014784;28;20018;-44
2021/10/12 11:07:21;;;;;;;2.45;1.20;;;;;;;;;;5014825;28;20029;-43
2021/10/12 11:09:47;;;;;;;2.50;1.40;;;;;;;;;;5015229;28;20028;-46
2021/10/12 11:12:20;;;;;;;2.95;1.67;;;;;;;;;;5014347;28;20018;-45
2021/10/12 11:14:47;;;;;;;3.97;1.60;;;;;;;;;;5014882;28;20022;-44
2021/10/12 11:17:13;;;;;;;1.55;1.45;;;;;;;;;;5014421;28;20121;-44
2021/10/12 11:19:55;;;;;;;1.95;1.60;;;;;;;;;;5019806;28;20524;-46
2021/10/12 11:22:21;;;;;;;3.22;1.35;;;;;;;;;;5035000;28;20021;-44
2021/10/12 11:24:48;;;;;;;3.63;1.63;;;;;;;;;;5034781;28;20053;-44
2021/10/12 11:27:14;;;;;;;2.53;1.50;;;;;;;;;;5034039;28;20619;-44
2021/10/12 11:29:40;;;;;;;2.85;1.20;;;;;;;;;;5034078;28;20045;-44
2021/10/12 11:32:06;;;;;;;3.30;1.27;;;;;;;;;;5033916;28;20060;-44
2021/10/12 11:34:33;;;;;;;2.85;1.58;;;;;;;;;;5034378;28;20021;-44
2021/10/12 11:37:08;;;;;;;3.90;2.17;;;;;;;;;;5033743;28;20406;-44
2021/10/12 11:39:34;;;;;;;2.53;1.60;;;;;;;;;;5034152;28;20026;-44
2021/10/12 11:42:01;;;;;;;2.90;1.42;;;;;;;;;;5033826;28;20056;-45
2021/10/12 11:44:27;;;;;;;3.60;1.77;;;;;;;;;;5033816;28;20073;-44
2021/10/12 11:46:59;;;;;;;2.47;1.40;;;;;;;;;;5033314;28;20022;-45
2021/10/12 11:49:25;;;;;;;2.58;1.77;;;;;;;;;;5033490;28;20357;-44
2021/10/12 11:51:53;;;;;;;2.60;1.48;;;;;;;;;;5028696;28;20078;-45
2021/10/12 11:54:23;;;;;;;1.58;1.40;;;;;;;;;;5033940;28;20014;-43
2021/10/12 11:56:51;;;;;;;2.38;1.70;;;;;;;;;;5034815;28;20025;-43
2021/10/12 11:59:17;;;;;;;4.07;1.70;;;;;;;;;;5033376;28;20095;-45
2021/10/12 12:01:44;;;;;;;3.80;1.80;;;;;;;;;;5034162;28;20375;-45
2021/10/12 12:04:11;;;;;;;2.50;1.52;;;;;;;;;;5032995;28;20045;-43
2021/10/12 12:06:39;;;;;;;3.63;1.20;;;;;;;;;;5034091;28;20018;-43
2021/10/12 12:09:18;;;;;;;3.97;1.60;;;;;;;;;;5033132;28;20027;-44
2021/10/12 12:11:44;;;;;;;2.35;1.30;;;;;;;;;;5034102;28;20489;-43
2021/10/12 12:14:10;;;;;;;1.50;1.20;;;;;;;;;;5032965;28;20083;-43
2021/10/12 12:16:36;;;;;;;1.17;0.93;;;;;;;;;;5033481;28;20033;-44
2021/10/12 12:19:18;;;;;;;1.90;1.13;;;;;;;;;;5032897;28;20414;-44
2021/10/12 12:21:44;;;;;;;2.47;1.30;;;;;;;;;;5013972;28;20032;-43
2021/10/12 12:24:17;;;;;;;2.25;1.30;;;;;;;;;;5013069;28;20026;-43
2021/10/12 12:26:43;;;;;;;2.58;1.52;;;;;;;;;;5013982;28;20064;-43
2021/10/12 12:29:22;;;;;;;1.58;1.08;;;;;;;;;;5012756;28;20128;-44
2021/10/12 12:31:52;;;;;;;2.47;1.52;;;;;;;;;;5013486;28;20096;-44
2021/10/12 12:34:32;;;;;;;1.83;1.10;;;;;;;;;;5029263;28;20024;-43
2021/10/12 12:36:58;;;;;;;2.28;1.77;;;;;;;;;;5032712;28;20033;-43
2021/10/12 12:39:32;;;;;;;2.15;1.27;;;;;;;;;;5033328;28;20025;-44
2021/10/12 12:41:58;;;;;;;3.20;1.52;;;;;;;;;;5032306;28;20014;-43
2021/10/12 12:44:27;;;;;;;2.28;1.40;;;;;;;;;;5032634;28;20024;-43
2021/10/12 12:47:00;;;;;;;2.83;1.50;;;;;;;;;;5033013;28;20059;-44
2021/10/12 12:49:27;;;;;;;4.05;1.52;;;;;;;;;;5033343;28;20025;-43
2021/10/12 12:51:53;;;;;;;1.92;1.10;;;;;;;;;;5033025;28;20048;-43
2021/10/12 12:54:52;;;;;;;2.92;1.20;;;;;;;;;;5032449;28;20017;-43
2021/10/12 12:57:20;;;;;;;1.65;1.15;;;;;;;;;;5030879;28;20053;-43
2021/10/12 12:59:58;;;;;;;2.45;1.25;;;;;;;;;;5032490;28;20022;-43
2021/10/12 13:02:24;;;;;;;1.70;1.40;;;;;;;;;;5032855;28;20030;-44
2021/10/12 13:04:50;;;;;;;2.35;1.10;;;;;;;;;;5032912;28;20052;-43
2021/10/12 13:07:16;;;;;;;2.83;1.30;;;;;;;;;;5032126;28;20037;-43
2021/10/12 13:09:43;;;;;;;3.20;1.00;;;;;;;;;;5032781;28;20025;-43
2021/10/12 13:12:10;;;;;;;3.22;1.58;;;;;;;;;;5032021;28;20025;-43
2021/10/12 13:14:37;;;;;;;1.77;1.00;;;;;;;;;;5032754;28;20025;-43
2021/10/12 13:17:03;;;;;;;3.45;1.67;;;;;;;;;;5031731;28;20112;-43
2021/10/12 13:19:29;;;;;;;4.28;1.58;;;;;;;;;;5032760;28;20018;-43
2021/10/12 13:21:55;;;;;;;1.50;1.30;;;;;;;;;;5032321;28;20021;-44
2021/10/12 13:24:21;;;;;;;2.20;1.35;;;;;;;;;;5032042;28;20026;-43
2021/10/12 13:26:47;;;;;;;1.77;1.00;;;;;;;;;;5032591;28;20397;-43
2021/10/12 13:29:13;;;;;;;2.00;1.15;;;;;;;;;;5032049;28;20028;-43
2021/10/12 13:31:39;;;;;;;4.90;1.90;;;;;;;;;;5032206;28;20100;-43
2021/10/12 13:34:05;;;;;;;3.05;1.45;;;;;;;;;;5031075;28;20101;-43
2021/10/12 13:36:31;;;;;;;1.40;1.10;;;;;;;;;;5032066;28;20826;-43
2021/10/12 13:38:57;;;;;;;2.20;1.20;;;;;;;;;;5032018;28;20026;-44
2021/10/12 13:41:23;;;;;;;2.58;1.48;;;;;;;;;;5032028;28;20025;-44
2021/10/12 13:43:50;;;;;;;2.05;1.27;;;;;;;;;;5032301;28;20032;-43
2021/10/12 13:46:16;;;;;;;1.40;1.10;;;;;;;;;;5031160;28;20045;-44
2021/10/12 13:48:42;;;;;;;1.80;1.17;;;;;;;;;;5032202;28;20033;-43
2021/10/12 13:51:12;;;;;;;2.00;1.23;;;;;;;;;;5031347;28;20014;-43
2021/10/12 13:53:38;;;;;;;2.40;1.50;;;;;;;;;;5032465;28;20100;-43
2021/10/12 13:56:07;;;;;;;1.95;1.27;;;;;;;;;;5031120;28;20036;-43
2021/10/12 13:58:34;;;;;;;2.40;1.63;;;;;;;;;;5032149;28;20152;-43
2021/10/12 14:01:00;;;;;;;1.88;1.20;;;;;;;;;;5029404;28;20091;-43
2021/10/12 14:03:27;;;;;;;2.53;1.38;;;;;;;;;;5031503;28;20052;-44
2021/10/12 14:05:53;;;;;;;1.90;1.30;;;;;;;;;;5031782;28;20075;-43
2021/10/12 14:08:19;;;;;;;2.33;1.40;;;;;;;;;;5031190;28;20109;-43
2021/10/12 14:10:45;;;;;;;2.25;1.20;;;;;;;;;;5031033;28;20524;-46
2021/10/12 14:13:11;;;;;;;5.43;1.10;;;;;;;;;;5031143;28;20382;-45
2021/10/12 14:15:37;;;;;;;2.80;1.33;;;;;;;;;;5031534;28;20025;-44
2021/10/12 14:18:03;;;;;;;3.15;1.50;;;;;;;;;;5030699;28;20467;-45
2021/10/12 14:20:29;;;;;;;3.20;1.23;;;;;;;;;;5031383;28;20021;-45
2021/10/12 14:22:55;;;;;;;12.93;1.95;;;;;;;;;;5031812;28;20013;-42
2021/10/12 14:25:22;;;;;;;5.22;1.30;;;;;;;;;;5031092;28;20032;-42
2021/10/12 14:27:49;;;;;;;7.15;1.65;;;;;;;;;;5031678;28;20044;-43
2021/10/12 14:30:15;;;;;;;6.20;1.20;;;;;;;;;;5030902;28;20056;-43
2021/10/12 14:32:41;;;;;;;5.43;1.20;;;;;;;;;;5031348;28;20013;-41
2021/10/12 14:35:07;;;;;;;6.65;1.33;;;;;;;;;;5030935;28;20022;-45
2021/10/12 14:37:34;;;;;;;5.07;1.40;;;;;;;;;;5031106;28;20048;-43
2021/10/12 14:40:02;;;;;;;8.40;1.20;;;;;;;;;;5030839;28;20041;-48
2021/10/12 14:42:29;;;;;;;3.63;1.13;;;;;;;;;;5031566;28;20175;-46
2021/10/12 14:44:55;;;;;;;3.25;1.52;;;;;;;;;;5031321;28;20054;-43
2021/10/12 14:47:21;;;;;;;2.38;1.25;;;;;;;;;;5030605;28;20101;-43
2021/10/12 14:49:47;;;;;;;10.32;1.83;;;;;;;;;;5030970;28;20140;-43
2021/10/12 14:52:13;;;;;;;5.05;1.27;;;;;;;;;;5030673;28;20071;-43